sensor_id;sensor_type;location;lat;lon;timestamp;P1;durP1;ratioP1;P2;durP2;ratioP2
54484;SDS011;45006;56.958;24.166;2023-10-31T00:01:26;4.43;;;2.22;;
54484;SDS011;45006;56.958;24.166;2023-10-31T00:03:53;2.25;;;1.77;;
54484;SDS011;45006;56.958;24.166;2023-10-31T00:06:21;6.03;;;2.00;;
54484;SDS011;45006;56.958;24.166;2023-10-31T00:08:48;3.15;;;2.22;;
54484;SDS011;45006;56.958;24.166;2023-10-31T00:11:16;4.15;;;2.20;;
54484;SDS011;45006;56.958;24.166;2023-10-31T00:13:43;3.30;;;1.95;;
54484;SDS011;45006;56.958;24.166;2023-10-31T00:16:11;6.38;;;1.67;;
54484;SDS011;45006;56.958;24.166;2023-10-31T00:18:38;2.95;;;1.75;;
54484;SDS011;45006;56.958;24.166;2023-10-31T00:21:07;3.85;;;2.00;;
54484;SDS011;45006;56.958;24.166;2023-10-31T00:23:41;2.90;;;2.00;;
54484;SDS011;45006;56.958;24.166;2023-10-31T00:26:09;4.00;;;2.00;;
54484;SDS011;45006;56.958;24.166;2023-10-31T00:28:36;3.70;;;2.00;;
54484;SDS011;45006;56.958;24.166;2023-10-31T00:31:04;3.88;;;1.90;;
54484;SDS011;45006;56.958;24.166;2023-10-31T00:33:34;4.60;;;2.13;;
54484;SDS011;45006;56.958;24.166;2023-10-31T00:36:02;4.22;;;1.90;;
54484;SDS011;45006;56.958;24.166;2023-10-31T00:38:29;2.67;;;1.80;;
54484;SDS011;45006;56.958;24.166;2023-10-31T00:40:57;3.80;;;2.10;;
54484;SDS011;45006;56.958;24.166;2023-10-31T00:43:24;3.08;;;1.88;;
54484;SDS011;45006;56.958;24.166;2023-10-31T00:45:52;3.35;;;1.88;;
54484;SDS011;45006;56.958;24.166;2023-10-31T00:48:20;2.65;;;1.80;;
54484;SDS011;45006;56.958;24.166;2023-10-31T00:50:48;4.10;;;1.60;;
54484;SDS011;45006;56.958;24.166;2023-10-31T00:53:15;3.92;;;2.00;;
54484;SDS011;45006;56.958;24.166;2023-10-31T00:55:43;3.03;;;1.85;;
54484;SDS011;45006;56.958;24.166;2023-10-31T00:58:11;3.35;;;1.95;;
54484;SDS011;45006;56.958;24.166;2023-10-31T01:00:38;3.88;;;1.83;;
54484;SDS011;45006;56.958;24.166;2023-10-31T01:03:06;4.70;;;1.65;;
54484;SDS011;45006;56.958;24.166;2023-10-31T01:05:34;2.58;;;1.65;;
54484;SDS011;45006;56.958;24.166;2023-10-31T01:08:01;3.80;;;1.70;;
54484;SDS011;45006;56.958;24.166;2023-10-31T01:10:29;3.10;;;1.95;;
54484;SDS011;45006;56.958;24.166;2023-10-31T01:12:56;3.67;;;1.63;;
54484;SDS011;45006;56.958;24.166;2023-10-31T01:15:24;2.25;;;1.70;;
54484;SDS011;45006;56.958;24.166;2023-10-31T01:17:51;4.45;;;1.77;;
54484;SDS011;45006;56.958;24.166;2023-10-31T01:20:19;2.50;;;1.60;;
54484;SDS011;45006;56.958;24.166;2023-10-31T01:22:46;3.35;;;1.70;;
54484;SDS011;45006;56.958;24.166;2023-10-31T01:25:14;2.45;;;1.50;;
54484;SDS011;45006;56.958;24.166;2023-10-31T01:27:41;2.75;;;1.63;;
54484;SDS011;45006;56.958;24.166;2023-10-31T01:30:09;2.95;;;1.58;;
54484;SDS011;45006;56.958;24.166;2023-10-31T01:32:37;4.35;;;1.83;;
54484;SDS011;45006;56.958;24.166;2023-10-31T01:35:04;2.08;;;1.45;;
54484;SDS011;45006;56.958;24.166;2023-10-31T01:37:32;2.55;;;1.73;;
54484;SDS011;45006;56.958;24.166;2023-10-31T01:39:59;3.45;;;1.58;;
54484;SDS011;45006;56.958;24.166;2023-10-31T01:42:28;4.80;;;1.98;;
54484;SDS011;45006;56.958;24.166;2023-10-31T01:44:55;2.03;;;1.58;;
54484;SDS011;45006;56.958;24.166;2023-10-31T01:47:22;3.28;;;1.58;;
54484;SDS011;45006;56.958;24.166;2023-10-31T01:49:51;2.80;;;1.70;;
54484;SDS011;45006;56.958;24.166;2023-10-31T01:52:19;3.30;;;1.50;;
54484;SDS011;45006;56.958;24.166;2023-10-31T01:54:46;2.30;;;1.60;;
54484;SDS011;45006;56.958;24.166;2023-10-31T01:57:14;1.90;;;1.50;;
54484;SDS011;45006;56.958;24.166;2023-10-31T01:59:42;4.72;;;1.73;;
54484;SDS011;45006;56.958;24.166;2023-10-31T02:02:09;2.58;;;1.70;;
54484;SDS011;45006;56.958;24.166;2023-10-31T02:04:37;2.30;;;1.40;;
54484;SDS011;45006;56.958;24.166;2023-10-31T02:07:04;2.67;;;1.70;;
54484;SDS011;45006;56.958;24.166;2023-10-31T02:09:32;3.08;;;1.60;;
54484;SDS011;45006;56.958;24.166;2023-10-31T02:12:00;3.67;;;1.70;;
54484;SDS011;45006;56.958;24.166;2023-10-31T02:14:27;2.33;;;1.60;;
54484;SDS011;45006;56.958;24.166;2023-10-31T02:16:54;2.53;;;1.48;;
54484;SDS011;45006;56.958;24.166;2023-10-31T02:19:22;3.67;;;1.63;;
54484;SDS011;45006;56.958;24.166;2023-10-31T02:21:49;1.90;;;1.30;;
54484;SDS011;45006;56.958;24.166;2023-10-31T02:24:16;2.97;;;1.60;;
54484;SDS011;45006;56.958;24.166;2023-10-31T02:26:44;1.67;;;1.38;;
54484;SDS011;45006;56.958;24.166;2023-10-31T02:29:11;3.05;;;1.85;;
54484;SDS011;45006;56.958;24.166;2023-10-31T02:31:39;2.55;;;1.38;;
54484;SDS011;45006;56.958;24.166;2023-10-31T02:34:06;2.88;;;1.45;;
54484;SDS011;45006;56.958;24.166;2023-10-31T02:36:34;1.98;;;1.35;;
54484;SDS011;45006;56.958;24.166;2023-10-31T02:39:01;2.33;;;1.25;;
54484;SDS011;45006;56.958;24.166;2023-10-31T02:41:28;2.17;;;1.40;;
54484;SDS011;45006;56.958;24.166;2023-10-31T02:43:56;2.42;;;1.40;;
54484;SDS011;45006;56.958;24.166;2023-10-31T02:46:24;2.35;;;1.50;;
54484;SDS011;45006;56.958;24.166;2023-10-31T02:48:51;1.90;;;1.20;;
54484;SDS011;45006;56.958;24.166;2023-10-31T02:51:19;2.58;;;1.70;;
54484;SDS011;45006;56.958;24.166;2023-10-31T02:53:46;5.10;;;1.40;;
54484;SDS011;45006;56.958;24.166;2023-10-31T02:56:14;2.50;;;1.30;;
54484;SDS011;45006;56.958;24.166;2023-10-31T02:58:41;1.95;;;1.52;;
54484;SDS011;45006;56.958;24.166;2023-10-31T03:01:09;2.33;;;1.30;;
54484;SDS011;45006;56.958;24.166;2023-10-31T03:03:36;2.45;;;1.40;;
54484;SDS011;45006;56.958;24.166;2023-10-31T03:06:06;1.65;;;1.30;;
54484;SDS011;45006;56.958;24.166;2023-10-31T03:08:34;2.03;;;1.40;;
54484;SDS011;45006;56.958;24.166;2023-10-31T03:11:01;2.88;;;1.45;;
54484;SDS011;45006;56.958;24.166;2023-10-31T03:13:29;1.92;;;1.50;;
54484;SDS011;45006;56.958;24.166;2023-10-31T03:15:56;2.42;;;1.50;;
54484;SDS011;45006;56.958;24.166;2023-10-31T03:18:24;1.92;;;1.30;;
54484;SDS011;45006;56.958;24.166;2023-10-31T03:20:51;2.00;;;1.40;;
54484;SDS011;45006;56.958;24.166;2023-10-31T03:23:19;1.88;;;1.40;;
54484;SDS011;45006;56.958;24.166;2023-10-31T03:25:46;1.40;;;1.17;;
54484;SDS011;45006;56.958;24.166;2023-10-31T03:28:17;1.67;;;1.25;;
54484;SDS011;45006;56.958;24.166;2023-10-31T03:30:50;1.80;;;1.20;;
54484;SDS011;45006;56.958;24.166;2023-10-31T03:33:18;1.42;;;1.00;;
54484;SDS011;45006;56.958;24.166;2023-10-31T03:35:45;2.40;;;1.45;;
54484;SDS011;45006;56.958;24.166;2023-10-31T03:38:13;1.50;;;1.30;;
54484;SDS011;45006;56.958;24.166;2023-10-31T03:40:42;2.20;;;1.20;;
54484;SDS011;45006;56.958;24.166;2023-10-31T03:43:09;2.17;;;1.30;;
54484;SDS011;45006;56.958;24.166;2023-10-31T03:45:37;2.03;;;1.10;;
54484;SDS011;45006;56.958;24.166;2023-10-31T03:48:04;1.65;;;1.10;;
54484;SDS011;45006;56.958;24.166;2023-10-31T03:50:31;3.28;;;1.30;;
54484;SDS011;45006;56.958;24.166;2023-10-31T03:52:59;1.33;;;1.02;;
54484;SDS011;45006;56.958;24.166;2023-10-31T03:55:26;2.67;;;1.20;;
54484;SDS011;45006;56.958;24.166;2023-10-31T03:57:54;1.10;;;1.00;;
54484;SDS011;45006;56.958;24.166;2023-10-31T04:00:21;1.63;;;1.00;;
54484;SDS011;45006;56.958;24.166;2023-10-31T04:02:48;2.15;;;1.35;;
54484;SDS011;45006;56.958;24.166;2023-10-31T04:05:18;2.25;;;1.20;;
54484;SDS011;45006;56.958;24.166;2023-10-31T04:07:46;1.15;;;0.98;;
54484;SDS011;45006;56.958;24.166;2023-10-31T04:10:14;4.38;;;1.15;;
54484;SDS011;45006;56.958;24.166;2023-10-31T04:12:41;1.70;;;1.25;;
54484;SDS011;45006;56.958;24.166;2023-10-31T04:15:09;4.57;;;1.30;;
54484;SDS011;45006;56.958;24.166;2023-10-31T04:17:37;1.17;;;1.00;;
54484;SDS011;45006;56.958;24.166;2023-10-31T04:20:04;2.17;;;1.20;;
54484;SDS011;45006;56.958;24.166;2023-10-31T04:22:32;1.60;;;1.23;;
54484;SDS011;45006;56.958;24.166;2023-10-31T04:25:00;5.40;;;1.33;;
54484;SDS011;45006;56.958;24.166;2023-10-31T04:27:27;2.72;;;1.25;;
54484;SDS011;45006;56.958;24.166;2023-10-31T04:29:54;3.20;;;1.25;;
54484;SDS011;45006;56.958;24.166;2023-10-31T04:32:22;4.25;;;1.20;;
54484;SDS011;45006;56.958;24.166;2023-10-31T04:34:50;1.95;;;1.30;;
54484;SDS011;45006;56.958;24.166;2023-10-31T04:37:17;1.52;;;1.20;;
54484;SDS011;45006;56.958;24.166;2023-10-31T04:39:45;1.92;;;1.10;;
54484;SDS011;45006;56.958;24.166;2023-10-31T04:42:12;1.75;;;1.25;;
54484;SDS011;45006;56.958;24.166;2023-10-31T04:44:40;1.75;;;1.10;;
54484;SDS011;45006;56.958;24.166;2023-10-31T04:47:07;1.95;;;1.08;;
54484;SDS011;45006;56.958;24.166;2023-10-31T04:49:35;2.30;;;1.20;;
54484;SDS011;45006;56.958;24.166;2023-10-31T04:52:03;1.40;;;1.10;;
54484;SDS011;45006;56.958;24.166;2023-10-31T04:54:30;1.55;;;1.10;;
54484;SDS011;45006;56.958;24.166;2023-10-31T04:56:57;3.67;;;1.17;;
54484;SDS011;45006;56.958;24.166;2023-10-31T04:59:25;4.35;;;1.15;;
54484;SDS011;45006;56.958;24.166;2023-10-31T05:01:52;1.95;;;1.20;;
54484;SDS011;45006;56.958;24.166;2023-10-31T05:04:21;1.45;;;1.10;;
54484;SDS011;45006;56.958;24.166;2023-10-31T05:06:49;1.52;;;1.08;;
54484;SDS011;45006;56.958;24.166;2023-10-31T05:09:16;1.27;;;1.10;;
54484;SDS011;45006;56.958;24.166;2023-10-31T05:11:47;1.50;;;1.10;;
54484;SDS011;45006;56.958;24.166;2023-10-31T05:14:14;2.80;;;1.30;;
54484;SDS011;45006;56.958;24.166;2023-10-31T05:16:42;1.88;;;1.40;;
54484;SDS011;45006;56.958;24.166;2023-10-31T05:19:10;1.77;;;1.30;;
54484;SDS011;45006;56.958;24.166;2023-10-31T05:21:37;2.20;;;1.50;;
54484;SDS011;45006;56.958;24.166;2023-10-31T05:24:05;2.15;;;1.50;;
54484;SDS011;45006;56.958;24.166;2023-10-31T05:26:33;2.22;;;1.35;;
54484;SDS011;45006;56.958;24.166;2023-10-31T05:29:00;2.90;;;1.38;;
54484;SDS011;45006;56.958;24.166;2023-10-31T05:31:27;1.40;;;1.05;;
54484;SDS011;45006;56.958;24.166;2023-10-31T05:33:55;1.50;;;1.10;;
54484;SDS011;45006;56.958;24.166;2023-10-31T05:36:25;2.30;;;1.35;;
54484;SDS011;45006;56.958;24.166;2023-10-31T05:38:54;1.77;;;1.15;;
54484;SDS011;45006;56.958;24.166;2023-10-31T05:41:21;3.35;;;1.45;;
54484;SDS011;45006;56.958;24.166;2023-10-31T05:43:49;2.17;;;1.40;;
54484;SDS011;45006;56.958;24.166;2023-10-31T05:46:17;2.15;;;1.13;;
54484;SDS011;45006;56.958;24.166;2023-10-31T05:48:45;1.75;;;0.90;;
54484;SDS011;45006;56.958;24.166;2023-10-31T05:51:17;2.20;;;1.25;;
54484;SDS011;45006;56.958;24.166;2023-10-31T05:53:45;1.20;;;0.98;;
54484;SDS011;45006;56.958;24.166;2023-10-31T05:56:13;1.58;;;1.25;;
54484;SDS011;45006;56.958;24.166;2023-10-31T05:58:41;1.20;;;0.98;;
54484;SDS011;45006;56.958;24.166;2023-10-31T06:01:09;2.83;;;0.93;;
54484;SDS011;45006;56.958;24.166;2023-10-31T06:03:36;1.17;;;1.00;;
54484;SDS011;45006;56.958;24.166;2023-10-31T06:06:04;1.80;;;1.30;;
54484;SDS011;45006;56.958;24.166;2023-10-31T06:08:32;1.73;;;1.17;;
54484;SDS011;45006;56.958;24.166;2023-10-31T06:10:59;1.55;;;1.08;;
54484;SDS011;45006;56.958;24.166;2023-10-31T06:13:27;1.42;;;1.05;;
54484;SDS011;45006;56.958;24.166;2023-10-31T06:15:56;1.20;;;0.93;;
54484;SDS011;45006;56.958;24.166;2023-10-31T06:18:27;1.52;;;1.10;;
54484;SDS011;45006;56.958;24.166;2023-10-31T06:20:55;1.63;;;1.00;;
54484;SDS011;45006;56.958;24.166;2023-10-31T06:23:23;1.30;;;1.00;;
54484;SDS011;45006;56.958;24.166;2023-10-31T06:25:50;1.27;;;0.77;;
54484;SDS011;45006;56.958;24.166;2023-10-31T06:28:18;1.20;;;0.93;;
54484;SDS011;45006;56.958;24.166;2023-10-31T06:30:45;1.00;;;0.85;;
54484;SDS011;45006;56.958;24.166;2023-10-31T06:33:13;1.00;;;0.90;;
54484;SDS011;45006;56.958;24.166;2023-10-31T06:35:40;1.17;;;0.88;;
54484;SDS011;45006;56.958;24.166;2023-10-31T06:38:09;1.42;;;1.10;;
54484;SDS011;45006;56.958;24.166;2023-10-31T06:40:36;1.15;;;1.00;;
54484;SDS011;45006;56.958;24.166;2023-10-31T06:43:04;1.35;;;0.90;;
54484;SDS011;45006;56.958;24.166;2023-10-31T06:45:31;1.83;;;0.88;;
54484;SDS011;45006;56.958;24.166;2023-10-31T06:47:59;1.13;;;0.80;;
54484;SDS011;45006;56.958;24.166;2023-10-31T06:50:26;0.95;;;0.80;;
54484;SDS011;45006;56.958;24.166;2023-10-31T06:52:54;2.38;;;1.17;;
54484;SDS011;45006;56.958;24.166;2023-10-31T06:55:21;1.65;;;0.90;;
54484;SDS011;45006;56.958;24.166;2023-10-31T06:57:48;1.13;;;1.00;;
54484;SDS011;45006;56.958;24.166;2023-10-31T07:00:16;0.90;;;0.88;;
54484;SDS011;45006;56.958;24.166;2023-10-31T07:02:43;1.00;;;0.88;;
54484;SDS011;45006;56.958;24.166;2023-10-31T07:05:11;1.17;;;0.85;;
54484;SDS011;45006;56.958;24.166;2023-10-31T07:07:39;0.98;;;0.70;;
54484;SDS011;45006;56.958;24.166;2023-10-31T07:10:06;0.95;;;0.80;;
54484;SDS011;45006;56.958;24.166;2023-10-31T07:12:34;0.73;;;0.73;;
54484;SDS011;45006;56.958;24.166;2023-10-31T07:15:01;1.67;;;0.77;;
54484;SDS011;45006;56.958;24.166;2023-10-31T07:17:29;4.50;;;1.30;;
54484;SDS011;45006;56.958;24.166;2023-10-31T07:19:57;3.17;;;1.10;;
54484;SDS011;45006;56.958;24.166;2023-10-31T07:22:24;8.57;;;1.90;;
54484;SDS011;45006;56.958;24.166;2023-10-31T07:24:52;7.93;;;1.70;;
54484;SDS011;45006;56.958;24.166;2023-10-31T07:27:19;5.13;;;1.60;;
54484;SDS011;45006;56.958;24.166;2023-10-31T07:29:46;4.75;;;1.52;;
54484;SDS011;45006;56.958;24.166;2023-10-31T07:32:15;4.40;;;1.70;;
54484;SDS011;45006;56.958;24.166;2023-10-31T07:34:42;7.07;;;1.83;;
54484;SDS011;45006;56.958;24.166;2023-10-31T07:37:10;4.68;;;1.60;;
54484;SDS011;45006;56.958;24.166;2023-10-31T07:39:37;3.45;;;1.40;;
54484;SDS011;45006;56.958;24.166;2023-10-31T07:42:05;5.90;;;1.40;;
54484;SDS011;45006;56.958;24.166;2023-10-31T07:44:32;4.22;;;1.55;;
54484;SDS011;45006;56.958;24.166;2023-10-31T07:46:59;4.43;;;1.33;;
54484;SDS011;45006;56.958;24.166;2023-10-31T07:49:27;9.50;;;1.50;;
54484;SDS011;45006;56.958;24.166;2023-10-31T07:51:54;3.38;;;1.45;;
54484;SDS011;45006;56.958;24.166;2023-10-31T07:54:22;3.97;;;1.38;;
54484;SDS011;45006;56.958;24.166;2023-10-31T07:56:49;3.63;;;1.33;;
54484;SDS011;45006;56.958;24.166;2023-10-31T07:59:16;5.93;;;1.58;;
54484;SDS011;45006;56.958;24.166;2023-10-31T08:01:44;6.03;;;1.55;;
54484;SDS011;45006;56.958;24.166;2023-10-31T08:04:11;3.17;;;1.23;;
54484;SDS011;45006;56.958;24.166;2023-10-31T08:06:41;3.55;;;1.70;;
54484;SDS011;45006;56.958;24.166;2023-10-31T08:09:09;3.47;;;1.45;;
54484;SDS011;45006;56.958;24.166;2023-10-31T08:11:36;2.55;;;1.13;;
54484;SDS011;45006;56.958;24.166;2023-10-31T08:14:03;3.05;;;1.40;;
54484;SDS011;45006;56.958;24.166;2023-10-31T08:16:31;4.80;;;1.30;;
54484;SDS011;45006;56.958;24.166;2023-10-31T08:18:58;2.60;;;1.30;;
54484;SDS011;45006;56.958;24.166;2023-10-31T08:21:26;2.58;;;1.25;;
54484;SDS011;45006;56.958;24.166;2023-10-31T08:23:59;2.05;;;1.17;;
54484;SDS011;45006;56.958;24.166;2023-10-31T08:26:27;4.25;;;1.50;;
54484;SDS011;45006;56.958;24.166;2023-10-31T08:28:54;3.70;;;1.35;;
54484;SDS011;45006;56.958;24.166;2023-10-31T08:31:22;2.65;;;1.23;;
54484;SDS011;45006;56.958;24.166;2023-10-31T08:33:50;2.58;;;1.23;;
54484;SDS011;45006;56.958;24.166;2023-10-31T08:36:17;1.85;;;1.10;;
54484;SDS011;45006;56.958;24.166;2023-10-31T08:38:45;3.03;;;1.42;;
54484;SDS011;45006;56.958;24.166;2023-10-31T08:41:12;1.75;;;1.20;;
54484;SDS011;45006;56.958;24.166;2023-10-31T08:43:48;2.13;;;1.08;;
54484;SDS011;45006;56.958;24.166;2023-10-31T08:46:15;6.70;;;1.25;;
54484;SDS011;45006;56.958;24.166;2023-10-31T08:48:43;2.55;;;1.05;;
54484;SDS011;45006;56.958;24.166;2023-10-31T08:51:11;1.92;;;1.10;;
54484;SDS011;45006;56.958;24.166;2023-10-31T08:53:38;2.90;;;1.45;;
54484;SDS011;45006;56.958;24.166;2023-10-31T08:56:06;4.25;;;1.30;;
54484;SDS011;45006;56.958;24.166;2023-10-31T08:58:33;1.35;;;0.90;;
54484;SDS011;45006;56.958;24.166;2023-10-31T09:01:01;1.73;;;0.90;;
54484;SDS011;45006;56.958;24.166;2023-10-31T09:03:28;2.33;;;1.05;;
54484;SDS011;45006;56.958;24.166;2023-10-31T09:05:56;2.78;;;1.02;;
54484;SDS011;45006;56.958;24.166;2023-10-31T09:08:24;4.10;;;1.27;;
54484;SDS011;45006;56.958;24.166;2023-10-31T09:10:51;2.83;;;1.27;;
54484;SDS011;45006;56.958;24.166;2023-10-31T09:13:19;1.88;;;1.10;;
54484;SDS011;45006;56.958;24.166;2023-10-31T09:15:46;4.10;;;1.10;;
54484;SDS011;45006;56.958;24.166;2023-10-31T09:18:16;3.38;;;1.15;;
54484;SDS011;45006;56.958;24.166;2023-10-31T09:20:43;2.40;;;1.20;;
54484;SDS011;45006;56.958;24.166;2023-10-31T09:23:11;2.97;;;1.48;;
54484;SDS011;45006;56.958;24.166;2023-10-31T09:25:38;2.70;;;1.48;;
54484;SDS011;45006;56.958;24.166;2023-10-31T09:28:06;5.28;;;1.80;;
54484;SDS011;45006;56.958;24.166;2023-10-31T09:30:33;5.05;;;1.77;;
54484;SDS011;45006;56.958;24.166;2023-10-31T09:33:00;3.42;;;1.75;;
54484;SDS011;45006;56.958;24.166;2023-10-31T09:35:28;5.10;;;2.00;;
54484;SDS011;45006;56.958;24.166;2023-10-31T09:37:55;4.88;;;2.20;;
54484;SDS011;45006;56.958;24.166;2023-10-31T09:40:24;4.32;;;2.35;;
54484;SDS011;45006;56.958;24.166;2023-10-31T09:42:51;5.22;;;2.70;;
54484;SDS011;45006;56.958;24.166;2023-10-31T09:45:19;6.78;;;2.60;;
54484;SDS011;45006;56.958;24.166;2023-10-31T09:47:46;5.57;;;2.72;;
54484;SDS011;45006;56.958;24.166;2023-10-31T09:50:16;5.43;;;2.72;;
54484;SDS011;45006;56.958;24.166;2023-10-31T09:52:44;5.40;;;2.97;;
54484;SDS011;45006;56.958;24.166;2023-10-31T09:55:12;5.53;;;2.95;;
54484;SDS011;45006;56.958;24.166;2023-10-31T09:57:40;7.47;;;3.40;;
54484;SDS011;45006;56.958;24.166;2023-10-31T10:00:07;7.75;;;3.22;;
54484;SDS011;45006;56.958;24.166;2023-10-31T10:02:35;7.72;;;3.35;;
54484;SDS011;45006;56.958;24.166;2023-10-31T10:05:03;5.43;;;3.20;;
54484;SDS011;45006;56.958;24.166;2023-10-31T10:07:31;7.22;;;3.22;;
54484;SDS011;45006;56.958;24.166;2023-10-31T10:10:00;10.35;;;3.42;;
54484;SDS011;45006;56.958;24.166;2023-10-31T10:12:28;8.30;;;3.38;;
54484;SDS011;45006;56.958;24.166;2023-10-31T10:14:56;7.90;;;2.83;;
54484;SDS011;45006;56.958;24.166;2023-10-31T10:17:25;9.13;;;3.45;;
54484;SDS011;45006;56.958;24.166;2023-10-31T10:20:05;6.45;;;2.45;;
54484;SDS011;45006;56.958;24.166;2023-10-31T10:22:38;11.52;;;3.20;;
54484;SDS011;45006;56.958;24.166;2023-10-31T10:25:08;9.52;;;3.13;;
54484;SDS011;45006;56.958;24.166;2023-10-31T10:27:39;6.93;;;2.60;;
54484;SDS011;45006;56.958;24.166;2023-10-31T10:30:07;8.40;;;2.78;;
54484;SDS011;45006;56.958;24.166;2023-10-31T10:32:35;8.35;;;3.10;;
54484;SDS011;45006;56.958;24.166;2023-10-31T10:35:02;9.88;;;2.85;;
54484;SDS011;45006;56.958;24.166;2023-10-31T10:37:30;11.63;;;2.92;;
54484;SDS011;45006;56.958;24.166;2023-10-31T10:39:58;6.93;;;2.67;;
54484;SDS011;45006;56.958;24.166;2023-10-31T10:42:33;7.75;;;3.08;;
54484;SDS011;45006;56.958;24.166;2023-10-31T10:45:03;8.93;;;2.80;;
54484;SDS011;45006;56.958;24.166;2023-10-31T10:47:31;10.57;;;2.97;;
54484;SDS011;45006;56.958;24.166;2023-10-31T10:50:00;11.23;;;2.80;;
54484;SDS011;45006;56.958;24.166;2023-10-31T10:57:37;9.80;;;3.00;;
54484;SDS011;45006;56.958;24.166;2023-10-31T11:00:06;12.10;;;2.60;;
54484;SDS011;45006;56.958;24.166;2023-10-31T11:02:36;8.75;;;2.72;;
54484;SDS011;45006;56.958;24.166;2023-10-31T11:05:07;8.65;;;2.63;;
54484;SDS011;45006;56.958;24.166;2023-10-31T11:07:37;10.50;;;2.83;;
54484;SDS011;45006;56.958;24.166;2023-10-31T11:10:05;9.90;;;2.50;;
54484;SDS011;45006;56.958;24.166;2023-10-31T11:12:33;7.22;;;2.45;;
54484;SDS011;45006;56.958;24.166;2023-10-31T11:15:01;6.47;;;2.10;;
54484;SDS011;45006;56.958;24.166;2023-10-31T11:17:30;7.78;;;2.92;;
54484;SDS011;45006;56.958;24.166;2023-10-31T11:19:58;7.65;;;2.47;;
54484;SDS011;45006;56.958;24.166;2023-10-31T11:22:36;7.82;;;2.13;;
54484;SDS011;45006;56.958;24.166;2023-10-31T11:25:06;6.20;;;2.40;;
54484;SDS011;45006;56.958;24.166;2023-10-31T11:27:41;10.48;;;2.50;;
54484;SDS011;45006;56.958;24.166;2023-10-31T11:32:51;11.15;;;2.63;;
54484;SDS011;45006;56.958;24.166;2023-10-31T11:35:19;7.68;;;2.50;;
54484;SDS011;45006;56.958;24.166;2023-10-31T11:37:48;8.00;;;2.60;;
54484;SDS011;45006;56.958;24.166;2023-10-31T11:42:47;5.68;;;2.53;;
54484;SDS011;45006;56.958;24.166;2023-10-31T11:47:55;5.03;;;2.40;;
54484;SDS011;45006;56.958;24.166;2023-10-31T11:50:23;7.32;;;2.55;;
54484;SDS011;45006;56.958;24.166;2023-10-31T11:53:00;7.38;;;2.45;;
54484;SDS011;45006;56.958;24.166;2023-10-31T11:55:29;6.85;;;2.38;;
54484;SDS011;45006;56.958;24.166;2023-10-31T11:57:56;6.25;;;2.10;;
54484;SDS011;45006;56.958;24.166;2023-10-31T12:00:24;5.55;;;2.63;;
54484;SDS011;45006;56.958;24.166;2023-10-31T12:03:01;6.07;;;2.45;;
54484;SDS011;45006;56.958;24.166;2023-10-31T12:05:29;5.38;;;2.05;;
54484;SDS011;45006;56.958;24.166;2023-10-31T12:07:56;6.53;;;2.53;;
54484;SDS011;45006;56.958;24.166;2023-10-31T12:10:24;4.38;;;2.20;;
54484;SDS011;45006;56.958;24.166;2023-10-31T12:12:53;7.78;;;2.47;;
54484;SDS011;45006;56.958;24.166;2023-10-31T12:15:20;4.95;;;2.03;;
54484;SDS011;45006;56.958;24.166;2023-10-31T12:17:48;5.05;;;2.10;;
54484;SDS011;45006;56.958;24.166;2023-10-31T12:20:16;6.68;;;2.30;;
54484;SDS011;45006;56.958;24.166;2023-10-31T12:22:43;4.53;;;2.10;;
54484;SDS011;45006;56.958;24.166;2023-10-31T12:25:11;5.38;;;2.20;;
54484;SDS011;45006;56.958;24.166;2023-10-31T12:27:42;7.55;;;2.10;;
54484;SDS011;45006;56.958;24.166;2023-10-31T12:30:11;3.60;;;1.67;;
54484;SDS011;45006;56.958;24.166;2023-10-31T12:32:39;5.65;;;2.15;;
54484;SDS011;45006;56.958;24.166;2023-10-31T12:35:10;6.15;;;2.30;;
54484;SDS011;45006;56.958;24.166;2023-10-31T12:37:43;6.47;;;2.23;;
54484;SDS011;45006;56.958;24.166;2023-10-31T12:40:16;3.88;;;2.20;;
54484;SDS011;45006;56.958;24.166;2023-10-31T12:42:44;5.97;;;2.25;;
54484;SDS011;45006;56.958;24.166;2023-10-31T12:45:12;7.70;;;2.40;;
54484;SDS011;45006;56.958;24.166;2023-10-31T12:47:40;4.35;;;2.05;;
54484;SDS011;45006;56.958;24.166;2023-10-31T12:55:18;7.35;;;2.03;;
54484;SDS011;45006;56.958;24.166;2023-10-31T12:57:46;7.35;;;2.33;;
54484;SDS011;45006;56.958;24.166;2023-10-31T13:00:14;4.70;;;2.05;;
54484;SDS011;45006;56.958;24.166;2023-10-31T13:02:42;6.50;;;2.20;;
54484;SDS011;45006;56.958;24.166;2023-10-31T13:05:14;4.03;;;1.98;;
54484;SDS011;45006;56.958;24.166;2023-10-31T13:07:48;4.55;;;2.10;;
54484;SDS011;45006;56.958;24.166;2023-10-31T13:10:18;3.88;;;2.00;;
54484;SDS011;45006;56.958;24.166;2023-10-31T13:12:46;6.10;;;2.78;;
54484;SDS011;45006;56.958;24.166;2023-10-31T13:15:14;13.23;;;7.22;;
54484;SDS011;45006;56.958;24.166;2023-10-31T13:17:41;24.48;;;13.65;;
54484;SDS011;45006;56.958;24.166;2023-10-31T13:20:10;30.10;;;16.92;;
54484;SDS011;45006;56.958;24.166;2023-10-31T13:22:39;32.83;;;23.27;;
54484;SDS011;45006;56.958;24.166;2023-10-31T13:25:08;36.50;;;25.77;;
54484;SDS011;45006;56.958;24.166;2023-10-31T13:27:37;38.85;;;28.17;;
54484;SDS011;45006;56.958;24.166;2023-10-31T13:30:05;45.80;;;31.88;;
54484;SDS011;45006;56.958;24.166;2023-10-31T13:32:34;50.42;;;34.53;;
54484;SDS011;45006;56.958;24.166;2023-10-31T13:35:01;54.65;;;37.70;;
54484;SDS011;45006;56.958;24.166;2023-10-31T13:37:29;45.15;;;34.72;;
54484;SDS011;45006;56.958;24.166;2023-10-31T13:39:57;47.85;;;33.80;;
54484;SDS011;45006;56.958;24.166;2023-10-31T13:42:24;46.63;;;30.52;;
54484;SDS011;45006;56.958;24.166;2023-10-31T13:44:52;42.35;;;28.65;;
54484;SDS011;45006;56.958;24.166;2023-10-31T13:47:19;45.00;;;30.08;;
54484;SDS011;45006;56.958;24.166;2023-10-31T13:49:47;41.03;;;30.50;;
54484;SDS011;45006;56.958;24.166;2023-10-31T13:52:15;42.13;;;28.58;;
54484;SDS011;45006;56.958;24.166;2023-10-31T13:54:42;50.63;;;28.63;;
54484;SDS011;45006;56.958;24.166;2023-10-31T13:57:10;43.67;;;28.38;;
54484;SDS011;45006;56.958;24.166;2023-10-31T13:59:37;46.17;;;28.85;;
54484;SDS011;45006;56.958;24.166;2023-10-31T14:02:04;43.58;;;27.10;;
54484;SDS011;45006;56.958;24.166;2023-10-31T14:04:32;40.97;;;27.27;;
54484;SDS011;45006;56.958;24.166;2023-10-31T14:07:00;39.40;;;26.17;;
54484;SDS011;45006;56.958;24.166;2023-10-31T14:09:28;40.72;;;26.00;;
54484;SDS011;45006;56.958;24.166;2023-10-31T14:11:57;42.20;;;27.15;;
54484;SDS011;45006;56.958;24.166;2023-10-31T14:14:24;42.92;;;25.60;;
54484;SDS011;45006;56.958;24.166;2023-10-31T14:16:52;40.05;;;24.98;;
54484;SDS011;45006;56.958;24.166;2023-10-31T14:19:19;39.30;;;24.15;;
54484;SDS011;45006;56.958;24.166;2023-10-31T14:21:49;30.95;;;22.25;;
54484;SDS011;45006;56.958;24.166;2023-10-31T14:24:18;28.65;;;19.05;;
54484;SDS011;45006;56.958;24.166;2023-10-31T14:26:46;33.10;;;19.75;;
54484;SDS011;45006;56.958;24.166;2023-10-31T14:29:13;28.02;;;18.98;;
54484;SDS011;45006;56.958;24.166;2023-10-31T14:31:41;28.30;;;18.45;;
54484;SDS011;45006;56.958;24.166;2023-10-31T14:34:09;30.20;;;18.17;;
54484;SDS011;45006;56.958;24.166;2023-10-31T14:36:36;32.13;;;18.55;;
54484;SDS011;45006;56.958;24.166;2023-10-31T14:39:04;30.33;;;18.52;;
54484;SDS011;45006;56.958;24.166;2023-10-31T14:41:31;30.30;;;17.83;;
54484;SDS011;45006;56.958;24.166;2023-10-31T14:44:01;28.00;;;17.50;;
54484;SDS011;45006;56.958;24.166;2023-10-31T14:46:31;27.85;;;17.77;;
54484;SDS011;45006;56.958;24.166;2023-10-31T14:48:59;30.17;;;17.50;;
54484;SDS011;45006;56.958;24.166;2023-10-31T14:51:26;30.52;;;17.92;;
54484;SDS011;45006;56.958;24.166;2023-10-31T14:53:54;29.00;;;17.33;;